createdAt,value
2017-09-28T00:00:25.182Z,0
2017-09-28T00:01:25.175Z,0
2017-09-28T00:02:25.482Z,0
2017-09-28T00:03:24.825Z,0
2017-09-28T00:04:25.124Z,0
2017-09-28T00:05:25.407Z,0
2017-09-28T00:06:25.114Z,0
2017-09-28T00:07:25.418Z,0
2017-09-28T00:08:25.376Z,0
2017-09-28T00:09:24.715Z,0
2017-09-28T00:10:24.714Z,0
2017-09-28T00:23:39.830Z,0
2017-09-28T00:23:50.075Z,0
2017-09-28T00:24:50.061Z,0
2017-09-28T00:25:50.041Z,0
2017-09-28T00:26:50.044Z,0
2017-09-28T00:27:50.015Z,0
2017-09-28T00:28:50.001Z,0
2017-09-28T00:29:49.692Z,0
2017-09-28T00:30:49.823Z,0
2017-09-28T00:31:49.934Z,0
2017-09-28T00:32:49.930Z,0
2017-09-28T00:33:49.608Z,0
2017-09-28T00:34:49.910Z,0
2017-09-28T00:35:49.867Z,0
2017-09-28T00:36:49.259Z,0
2017-09-28T00:37:49.199Z,0
2017-09-28T00:38:49.552Z,0
2017-09-28T00:39:49.218Z,0
2017-09-28T00:40:49.564Z,0
2017-09-28T00:41:49.453Z,0
2017-09-28T00:42:49.113Z,0
2017-09-28T00:43:49.727Z,0
2017-09-28T00:44:49.430Z,0
2017-09-28T00:45:49.363Z,0
2017-09-28T00:46:49.408Z,0
2017-09-28T00:47:48.713Z,0
2017-09-28T00:48:49.392Z,0
2017-09-28T00:49:49.363Z,0
2017-09-28T00:50:49.551Z,0
2017-09-28T00:51:48.951Z,0
2017-09-28T00:52:48.621Z,0
2017-09-28T00:53:49.242Z,0
2017-09-28T00:54:49.253Z,0
2017-09-28T00:55:48.581Z,0
2017-09-28T00:56:49.196Z,0
2017-09-28T00:57:48.857Z,0
2017-09-28T00:58:49.171Z,0
2017-09-28T00:59:48.512Z,0
2017-09-28T01:00:49.421Z,0
2017-09-28T01:01:49.092Z,0
2017-09-28T01:02:49.123Z,0
2017-09-28T01:03:49.076Z,0
2017-09-28T01:04:49.040Z,0
2017-09-28T01:05:49.441Z,0
2017-09-28T01:06:49.311Z,0
2017-09-28T01:07:49.300Z,0
2017-09-28T01:08:49.391Z,0
2017-09-28T01:09:49.231Z,0
2017-09-28T01:10:49.237Z,0
2017-09-28T01:11:49.211Z,0
2017-09-28T01:12:49.184Z,0
2017-09-28T01:13:49.305Z,0
2017-09-28T01:14:49.262Z,0
2017-09-28T01:15:48.962Z,0
2017-09-28T01:16:49.192Z,0
2017-09-28T01:17:48.471Z,0
2017-09-28T01:18:48.153Z,0
2017-09-28T01:19:48.117Z,0
2017-09-28T01:20:48.759Z,0
2017-09-28T01:21:48.716Z,0
2017-09-28T01:22:48.370Z,0
2017-09-28T01:23:48.750Z,0
2017-09-28T01:24:48.058Z,0
2017-09-28T01:25:48.312Z,0
2017-09-28T01:26:48.364Z,0
2017-09-28T01:27:48.302Z,0
2017-09-28T01:28:48.021Z,0
2017-09-28T01:29:48.870Z,0
2017-09-28T01:30:48.550Z,0
2017-09-28T01:31:48.211Z,0
2017-09-28T01:32:48.200Z,0
2017-09-28T01:33:48.821Z,0
2017-09-28T01:34:48.200Z,0
2017-09-28T01:35:48.132Z,0
2017-09-28T01:36:48.444Z,0
2017-09-28T01:37:47.792Z,0
2017-09-28T01:38:48.245Z,0
2017-09-28T01:39:48.074Z,0
2017-09-28T01:40:48.132Z,0
2017-09-28T01:41:48.348Z,0
2017-09-28T01:42:48.052Z,0
2017-09-28T01:43:48.311Z,0
2017-09-28T01:44:48.388Z,0
2017-09-28T01:45:48.582Z,0
2017-09-28T01:46:48.315Z,0
2017-09-28T01:47:48.608Z,0
2017-09-28T01:48:47.690Z,0
2017-09-28T01:49:47.949Z,0
2017-09-28T01:50:48.181Z,0
2017-09-28T01:51:47.972Z,0
2017-09-28T01:52:48.464Z,0
2017-09-28T01:53:48.500Z,0
2017-09-28T01:54:48.132Z,0
2017-09-28T01:55:48.112Z,0
2017-09-28T01:56:48.141Z,0
2017-09-28T01:57:48.077Z,0
2017-09-28T01:58:48.141Z,0
2017-09-28T01:59:48.351Z,0
2017-09-28T02:00:48.087Z,0
2017-09-28T02:01:48.074Z,0
2017-09-28T02:02:48.012Z,0
2017-09-28T02:03:47.962Z,0
2017-09-28T02:04:47.629Z,0
2017-09-28T02:05:48.232Z,0
2017-09-28T02:06:47.982Z,0
2017-09-28T02:07:47.961Z,0
2017-09-28T02:08:47.558Z,0
2017-09-28T02:09:48.163Z,0
2017-09-28T02:10:48.153Z,0
2017-09-28T02:11:48.201Z,0
2017-09-28T02:12:48.111Z,0
2017-09-28T02:13:47.455Z,0
2017-09-28T02:14:47.850Z,0
2017-09-28T02:15:48.052Z,0
2017-09-28T02:16:48.119Z,0
2017-09-28T02:17:48.021Z,0
2017-09-28T02:18:47.992Z,0
2017-09-28T02:19:48.052Z,0
2017-09-28T02:20:47.340Z,0
2017-09-28T02:21:47.991Z,0
2017-09-28T02:22:48.033Z,0
2017-09-28T02:23:47.962Z,0
2017-09-28T02:24:47.270Z,0
2017-09-28T02:25:47.241Z,0
2017-09-28T02:26:47.863Z,0
2017-09-28T02:27:47.863Z,0
2017-09-28T02:28:47.511Z,0
2017-09-28T02:29:47.487Z,0
2017-09-28T02:30:47.181Z,0
2017-09-28T02:31:47.529Z,0
2017-09-28T02:32:47.439Z,0
2017-09-28T02:33:47.411Z,0
2017-09-28T02:34:47.392Z,0
2017-09-28T02:35:47.083Z,0
2017-09-28T02:36:47.370Z,0
2017-09-28T02:37:47.440Z,0
2017-09-28T02:38:47.658Z,0
2017-09-28T02:39:47.011Z,0
2017-09-28T02:40:47.632Z,0
2017-09-28T02:41:46.987Z,0
2017-09-28T02:42:47.591Z,0
2017-09-28T02:43:47.277Z,0
2017-09-28T02:44:47.572Z,0
2017-09-28T02:45:46.881Z,0
2017-09-28T02:46:47.183Z,0
2017-09-28T02:47:46.862Z,0
2017-09-28T02:48:47.447Z,0
2017-09-28T02:49:46.821Z,0
2017-09-28T02:50:46.799Z,0
2017-09-28T02:51:47.441Z,0
2017-09-28T02:52:46.822Z,0
2017-09-28T02:53:46.788Z,0
2017-09-28T02:54:46.722Z,0
2017-09-28T02:55:46.731Z,0
2017-09-28T02:56:46.699Z,0
2017-09-28T02:57:46.979Z,0
2017-09-28T02:58:46.339Z,0
2017-09-28T02:59:46.640Z,0
2017-09-28T03:00:46.609Z,0
2017-09-28T03:01:46.921Z,0
2017-09-28T03:02:45.949Z,0
2017-09-28T03:03:47.189Z,0
2017-09-28T03:04:46.864Z,0
2017-09-28T03:05:46.830Z,0
2017-09-28T03:06:46.827Z,0
2017-09-28T03:07:46.500Z,0
2017-09-28T03:08:46.830Z,0
2017-09-28T03:09:46.766Z,0
2017-09-28T03:10:47.070Z,0
2017-09-28T03:11:46.729Z,0
2017-09-28T03:12:46.720Z,0
2017-09-28T03:13:46.739Z,0
2017-09-28T03:14:46.706Z,0
2017-09-28T03:15:46.687Z,0
2017-09-28T03:16:46.944Z,0
2017-09-28T03:17:46.634Z,0
2017-09-28T03:18:46.970Z,0
2017-09-28T03:19:46.583Z,0
2017-09-28T03:20:46.821Z,0
2017-09-28T03:21:45.923Z,0
2017-09-28T03:22:46.528Z,0
2017-09-28T03:23:46.203Z,0
2017-09-28T03:24:46.872Z,0
2017-09-28T03:25:46.169Z,0
2017-09-28T03:26:46.857Z,0
2017-09-28T03:27:46.454Z,0
2017-09-28T03:28:46.765Z,0
2017-09-28T03:29:46.713Z,0
2017-09-28T03:30:46.728Z,0
2017-09-28T03:31:46.679Z,0
2017-09-28T03:32:46.718Z,0
2017-09-28T03:33:46.378Z,0
2017-09-28T03:34:46.619Z,0
2017-09-28T03:35:46.627Z,0
2017-09-28T03:36:46.308Z,0
2017-09-28T03:37:45.720Z,0
2017-09-28T03:38:46.281Z,0
2017-09-28T03:39:46.225Z,0
2017-09-28T03:40:45.585Z,0
2017-09-28T03:41:45.627Z,0
2017-09-28T03:42:46.226Z,0
2017-09-28T03:43:45.530Z,0
2017-09-28T03:44:45.816Z,0
2017-09-28T03:45:45.819Z,0
2017-09-28T03:46:45.784Z,0
2017-09-28T03:47:45.460Z,0
2017-09-28T03:48:45.756Z,0
2017-09-28T03:49:45.732Z,0
2017-09-28T03:50:45.409Z,0
2017-09-28T03:51:46.338Z,0
2017-09-28T03:52:46.293Z,0
2017-09-28T03:53:45.656Z,0
2017-09-28T03:54:45.955Z,0
2017-09-28T03:55:45.632Z,0
2017-09-28T03:56:45.911Z,0
2017-09-28T03:57:45.588Z,0
2017-09-28T03:58:45.632Z,0
2017-09-28T03:59:45.559Z,0
2017-09-28T04:00:45.539Z,0
2017-09-28T04:01:45.221Z,0
2017-09-28T04:02:45.807Z,0
2017-09-28T04:03:45.788Z,0
2017-09-28T04:04:45.785Z,0
2017-09-28T04:05:45.761Z,0
2017-09-28T04:06:45.737Z,0
2017-09-28T04:07:45.728Z,0
2017-09-28T04:08:45.418Z,0
2017-09-28T04:09:45.370Z,0
2017-09-28T04:10:45.680Z,0
2017-09-28T04:11:45.656Z,0
2017-09-28T04:12:45.640Z,0
2017-09-28T04:13:45.604Z,0
2017-09-28T04:14:45.908Z,0
2017-09-28T04:15:45.584Z,0
2017-09-28T04:16:45.342Z,0
2017-09-28T04:17:45.227Z,0
2017-09-28T04:18:45.222Z,0
2017-09-28T04:19:45.814Z,0
2017-09-28T04:20:45.508Z,0
2017-09-28T04:21:45.489Z,0
2017-09-28T04:22:45.459Z,0
2017-09-28T04:23:45.769Z,0
2017-09-28T04:24:45.409Z,0
2017-09-28T04:25:45.410Z,0
2017-09-28T04:26:45.365Z,0
2017-09-28T04:27:45.368Z,0
2017-09-28T04:28:45.652Z,0
2017-09-28T04:29:45.705Z,0
2017-09-28T04:30:45.298Z,0
2017-09-28T04:31:45.611Z,0
2017-09-28T04:32:45.269Z,0
2017-09-28T04:33:45.587Z,0
2017-09-28T04:34:45.561Z,0
2017-09-28T04:35:44.948Z,0
2017-09-28T04:36:45.512Z,0
2017-09-28T04:37:45.556Z,0
2017-09-28T04:38:45.486Z,0
2017-09-28T04:39:45.156Z,0
2017-09-28T04:40:45.134Z,0
2017-09-28T04:41:45.119Z,0
2017-09-28T04:42:45.440Z,0
2017-09-28T04:43:45.097Z,0
2017-09-28T04:44:45.058Z,0
2017-09-28T04:45:45.352Z,0
2017-09-28T04:46:45.008Z,0
2017-09-28T04:47:44.386Z,0
2017-09-28T04:48:44.657Z,0
2017-09-28T04:49:45.290Z,0
2017-09-28T04:50:45.258Z,0
2017-09-28T04:51:45.223Z,0
2017-09-28T04:52:44.617Z,0
2017-09-28T04:53:44.866Z,0
2017-09-28T04:54:44.558Z,0
2017-09-28T04:55:45.169Z,0
2017-09-28T04:56:45.147Z,0
2017-09-28T04:57:45.130Z,0
2017-09-28T04:58:45.106Z,0
2017-09-28T04:59:45.098Z,0
2017-09-28T05:00:44.446Z,0
2017-09-28T05:01:45.049Z,0
2017-09-28T05:02:44.415Z,0
2017-09-28T05:03:44.390Z,0
2017-09-28T05:04:44.697Z,0
2017-09-28T05:05:44.695Z,0
2017-09-28T05:06:44.671Z,0
2017-09-28T05:07:44.330Z,0
2017-09-28T05:08:44.326Z,0
2017-09-28T05:09:44.597Z,0
2017-09-28T05:10:44.597Z,0
2017-09-28T05:11:44.288Z,0
2017-09-28T05:12:44.844Z,0
2017-09-28T05:13:44.540Z,0
2017-09-28T05:14:44.844Z,0
2017-09-28T05:15:44.172Z,0
2017-09-28T05:16:44.811Z,0
2017-09-28T05:17:44.818Z,0
2017-09-28T05:18:44.498Z,0
2017-09-28T05:19:44.438Z,0
2017-09-28T05:20:43.777Z,0
2017-09-28T05:21:44.399Z,0
2017-09-28T05:22:44.078Z,0
2017-09-28T05:23:44.392Z,0
2017-09-28T05:24:44.366Z,0
2017-09-28T05:25:44.341Z,0
2017-09-28T05:26:44.296Z,0
2017-09-28T05:27:44.296Z,0
2017-09-28T05:28:44.259Z,0
2017-09-28T05:29:43.910Z,0
2017-09-28T05:30:44.539Z,0
2017-09-28T05:31:44.206Z,0
2017-09-28T05:32:44.188Z,0
2017-09-28T05:33:44.178Z,0
2017-09-28T05:34:44.474Z,0
2017-09-28T05:35:43.840Z,0
2017-09-28T05:36:44.132Z,0
2017-09-28T05:37:44.096Z,0
2017-09-28T05:38:44.386Z,0
2017-09-28T05:39:44.046Z,0
2017-09-28T05:40:44.370Z,0
2017-09-28T05:41:44.331Z,0
2017-09-28T05:42:43.370Z,0
2017-09-28T05:43:44.079Z,0
2017-09-28T05:44:44.280Z,0
2017-09-28T05:45:43.316Z,0
2017-09-28T05:46:44.029Z,0
2017-09-28T05:47:43.926Z,0
2017-09-28T05:48:43.269Z,0
2017-09-28T05:49:44.203Z,0
2017-09-28T05:50:43.838Z,0
2017-09-28T05:51:43.232Z,0
2017-09-28T05:52:43.499Z,0
2017-09-28T05:53:44.131Z,0
2017-09-28T05:54:44.126Z,0
2017-09-28T05:55:43.779Z,0
2017-09-28T05:56:44.078Z,0
2017-09-28T05:57:43.098Z,0
2017-09-28T05:58:43.428Z,0
2017-09-28T05:59:43.070Z,0
2017-09-28T06:00:43.698Z,0
2017-09-28T06:01:43.351Z,0
2017-09-28T06:02:43.330Z,0
2017-09-28T06:03:43.399Z,0
2017-09-28T06:04:43.910Z,0
2017-09-28T06:05:43.714Z,5
2017-09-28T06:06:43.889Z,5
2017-09-28T06:07:43.558Z,5
2017-09-28T06:08:43.220Z,5
2017-09-28T06:09:43.489Z,5
2017-09-28T06:10:43.799Z,5
2017-09-28T06:11:43.229Z,5
2017-09-28T06:12:43.462Z,5
2017-09-28T06:13:43.419Z,10
2017-09-28T06:14:43.099Z,10
2017-09-28T06:15:43.388Z,10
2017-09-28T06:16:44.042Z,10
2017-09-28T06:17:43.660Z,10
2017-09-28T06:18:43.349Z,10
2017-09-28T06:19:43.387Z,15
2017-09-28T06:20:43.020Z,15
2017-09-28T06:21:43.598Z,15
2017-09-28T06:22:43.370Z,15
2017-09-28T06:23:43.252Z,15
2017-09-28T06:24:43.269Z,15
2017-09-28T06:25:43.240Z,15
2017-09-28T06:26:43.510Z,15
2017-09-28T06:27:43.258Z,15
2017-09-28T06:28:43.153Z,15
2017-09-28T06:29:43.169Z,15
2017-09-28T06:30:43.440Z,15
2017-09-28T06:31:43.423Z,15
2017-09-28T06:32:43.400Z,20
2017-09-28T06:33:43.377Z,20
2017-09-28T06:34:42.762Z,20
2017-09-28T06:35:43.332Z,20
2017-09-28T06:36:43.024Z,20
2017-09-28T06:37:43.304Z,20
2017-09-28T06:38:42.662Z,20
2017-09-28T06:39:42.726Z,15
2017-09-28T06:40:43.272Z,15
2017-09-28T06:41:43.221Z,15
2017-09-28T06:42:43.202Z,15
2017-09-28T06:43:43.197Z,15
2017-09-28T06:44:43.181Z,15
2017-09-28T06:45:43.172Z,15
2017-09-28T06:46:43.153Z,15
2017-09-28T06:47:43.140Z,15
2017-09-28T06:48:42.835Z,15
2017-09-28T06:49:42.262Z,15
2017-09-28T06:50:43.082Z,15
2017-09-28T06:51:43.083Z,15
2017-09-28T06:52:42.730Z,15
2017-09-28T06:53:43.032Z,15
2017-09-28T06:54:43.022Z,15
2017-09-28T06:55:42.683Z,15
2017-09-28T06:56:43.052Z,15
2017-09-28T06:57:42.942Z,15
2017-09-28T06:58:42.306Z,15
2017-09-28T06:59:42.601Z,15
2017-09-28T07:00:42.608Z,15
2017-09-28T07:01:42.900Z,15
2017-09-28T07:02:42.559Z,15
2017-09-28T07:03:42.861Z,15
2017-09-28T07:04:42.855Z,15
2017-09-28T07:05:42.840Z,20
2017-09-28T07:06:42.220Z,20
2017-09-28T07:07:42.772Z,20
2017-09-28T07:08:42.770Z,20
2017-09-28T07:09:42.742Z,20
2017-09-28T07:10:42.741Z,20
2017-09-28T07:11:42.449Z,20
2017-09-28T07:12:42.677Z,20
2017-09-28T07:13:42.382Z,20
2017-09-28T07:14:42.349Z,20
2017-09-28T07:15:42.299Z,20
2017-09-28T07:16:42.621Z,20
2017-09-28T07:17:42.304Z,20
2017-09-28T07:18:41.958Z,25
2017-09-28T07:19:42.261Z,25
2017-09-28T07:20:42.222Z,25
2017-09-28T07:21:42.350Z,25
2017-09-28T07:22:42.499Z,25
2017-09-28T07:23:42.240Z,30
2017-09-28T07:24:42.160Z,30
2017-09-28T07:25:42.130Z,30
2017-09-28T07:26:42.453Z,30
2017-09-28T07:27:41.174Z,30
2017-09-28T07:28:42.409Z,35
2017-09-28T07:29:42.070Z,35
2017-09-28T07:30:42.075Z,35
2017-09-28T07:31:41.712Z,35
2017-09-28T07:32:42.019Z,35
2017-09-28T07:33:41.982Z,40
2017-09-28T07:34:42.010Z,40
2017-09-28T07:35:42.268Z,40
2017-09-28T07:36:41.626Z,40
2017-09-28T07:37:41.929Z,40
2017-09-28T07:38:42.209Z,40
2017-09-28T07:39:42.219Z,40
2017-09-28T07:40:42.026Z,40
2017-09-28T07:41:42.239Z,40
2017-09-28T07:42:41.848Z,40
2017-09-28T07:43:42.149Z,40
2017-09-28T07:44:42.113Z,45
2017-09-28T07:45:42.122Z,45
2017-09-28T07:46:42.072Z,45
2017-09-28T07:47:42.150Z,50
2017-09-28T07:48:42.132Z,50
2017-09-28T07:49:42.021Z,50
2017-09-28T07:50:41.380Z,55
2017-09-28T07:51:42.000Z,55
2017-09-28T07:52:41.980Z,55
2017-09-28T07:53:41.369Z,50
2017-09-28T07:54:41.940Z,50
2017-09-28T07:55:41.287Z,45
2017-09-28T07:56:41.702Z,45
2017-09-28T07:57:41.988Z,45
2017-09-28T07:58:41.622Z,40
2017-09-28T07:59:41.941Z,40
2017-09-28T08:00:41.820Z,40
2017-09-28T08:01:41.729Z,40
2017-09-28T08:02:41.221Z,45
2017-09-28T08:03:40.851Z,45
2017-09-28T08:04:41.460Z,45
2017-09-28T08:05:41.773Z,45
2017-09-28T08:06:41.437Z,45
2017-09-28T08:07:41.381Z,45
2017-09-28T08:08:41.701Z,40
2017-09-28T08:09:41.375Z,40
2017-09-28T08:10:41.709Z,40
2017-09-28T08:11:41.350Z,40
2017-09-28T08:12:40.989Z,40
2017-09-28T08:13:41.290Z,40
2017-09-28T08:14:41.600Z,40
2017-09-28T08:15:41.260Z,35
2017-09-28T08:16:41.253Z,35
2017-09-28T08:17:41.541Z,35
2017-09-28T08:18:41.201Z,40
2017-09-28T08:19:41.502Z,40
2017-09-28T08:20:41.232Z,40
2017-09-28T08:21:41.199Z,40
2017-09-28T08:22:40.813Z,40
2017-09-28T08:23:41.441Z,40
2017-09-28T08:24:41.170Z,40
2017-09-28T08:25:41.134Z,40
2017-09-28T08:26:41.072Z,40
2017-09-28T08:27:40.817Z,40
2017-09-28T08:28:41.049Z,40
2017-09-28T08:29:40.727Z,45
2017-09-28T08:30:41.313Z,45
2017-09-28T08:31:41.331Z,45
2017-09-28T08:32:40.971Z,45
2017-09-28T08:33:41.263Z,45
2017-09-28T08:34:40.942Z,45
2017-09-28T08:35:41.235Z,45
2017-09-28T08:36:40.900Z,50
2017-09-28T08:37:41.188Z,50
2017-09-28T08:38:40.537Z,50
2017-09-28T08:39:40.912Z,55
2017-09-28T08:40:40.822Z,55
2017-09-28T08:41:40.913Z,60
2017-09-28T08:42:40.845Z,60
2017-09-28T08:43:40.906Z,65
2017-09-28T08:44:40.500Z,65
2017-09-28T08:45:41.196Z,70
2017-09-28T08:46:40.790Z,75
2017-09-28T08:47:40.761Z,75
2017-09-28T08:48:41.010Z,75
2017-09-28T08:49:40.762Z,75
2017-09-28T08:50:40.965Z,80
2017-09-28T08:51:40.960Z,85
2017-09-28T08:52:40.943Z,90
2017-09-28T08:53:40.664Z,95
2017-09-28T08:54:40.944Z,90
2017-09-28T08:55:40.967Z,85
2017-09-28T08:56:40.554Z,85
2017-09-28T08:57:40.864Z,90
2017-09-28T08:58:40.529Z,95
2017-09-28T08:59:40.260Z,105
2017-09-28T09:00:40.843Z,110
2017-09-28T09:01:40.832Z,115
2017-09-28T09:02:40.153Z,105
2017-09-28T09:03:40.124Z,100
2017-09-28T09:04:40.432Z,95
2017-09-28T09:05:40.842Z,95
2017-09-28T09:06:40.716Z,90
2017-09-28T09:07:40.721Z,95
2017-09-28T09:08:40.672Z,115
2017-09-28T09:09:40.468Z,170
2017-09-28T09:10:40.653Z,115
2017-09-28T09:11:40.312Z,100
2017-09-28T09:12:40.308Z,95
2017-09-28T09:13:40.282Z,95
2017-09-28T09:14:40.290Z,90
2017-09-28T09:15:40.237Z,90
2017-09-28T09:16:40.542Z,90
2017-09-28T09:17:40.541Z,90
2017-09-28T09:18:39.586Z,95
2017-09-28T09:19:40.175Z,85
2017-09-28T09:20:40.482Z,85
2017-09-28T09:21:40.171Z,85
2017-09-28T09:22:39.818Z,90
2017-09-28T09:23:40.441Z,90
2017-09-28T09:24:40.482Z,95
2017-09-28T09:25:40.424Z,95
2017-09-28T09:26:40.368Z,95
2017-09-28T09:27:40.381Z,95
2017-09-28T09:28:40.396Z,95
2017-09-28T09:29:40.352Z,90
2017-09-28T09:30:40.321Z,85
2017-09-28T09:31:39.982Z,80
2017-09-28T09:32:40.340Z,75
2017-09-28T09:33:39.951Z,80
2017-09-28T09:34:40.233Z,85
2017-09-28T09:35:40.232Z,85
2017-09-28T09:36:39.894Z,90
2017-09-28T09:37:39.890Z,95
2017-09-28T09:38:39.872Z,100
2017-09-28T09:39:39.859Z,105
2017-09-28T09:40:39.539Z,105
2017-09-28T09:41:40.132Z,100
2017-09-28T09:42:39.501Z,100
2017-09-28T09:43:39.805Z,100
2017-09-28T09:44:39.160Z,100
2017-09-28T09:45:39.778Z,100
2017-09-28T09:46:39.441Z,100
2017-09-28T09:47:40.071Z,105
2017-09-28T09:48:39.729Z,105
2017-09-28T09:49:39.686Z,105
2017-09-28T09:50:40.000Z,105
2017-09-28T09:51:39.983Z,110
2017-09-28T09:52:39.960Z,110
2017-09-28T09:53:39.620Z,110
2017-09-28T09:54:39.926Z,115
2017-09-28T09:55:39.912Z,110
2017-09-28T09:56:39.329Z,105
2017-09-28T09:57:39.890Z,105
2017-09-28T09:58:39.865Z,105
2017-09-28T09:59:39.539Z,100
2017-09-28T10:00:39.843Z,95
2017-09-28T10:01:39.521Z,90
2017-09-28T10:02:39.521Z,90
2017-09-28T10:03:39.818Z,85
2017-09-28T10:04:39.159Z,85
2017-09-28T10:05:39.438Z,85
2017-09-28T10:06:39.458Z,85
2017-09-28T10:07:39.720Z,85
2017-09-28T10:08:39.742Z,80
2017-09-28T10:09:39.413Z,85
2017-09-28T10:10:39.685Z,85
2017-09-28T10:11:39.652Z,85
2017-09-28T10:12:39.340Z,85
2017-09-28T10:13:39.309Z,85
2017-09-28T10:14:39.623Z,85
2017-09-28T10:15:38.659Z,80
2017-09-28T10:16:39.280Z,80
2017-09-28T10:17:39.252Z,75
2017-09-28T10:18:39.330Z,75
2017-09-28T10:19:39.540Z,75
2017-09-28T10:20:38.886Z,75
2017-09-28T10:21:38.571Z,75
2017-09-28T10:22:39.510Z,75
2017-09-28T10:23:39.490Z,75
2017-09-28T10:24:38.850Z,75
2017-09-28T10:25:39.228Z,75
2017-09-28T10:26:39.142Z,70
2017-09-28T10:27:39.431Z,75
2017-09-28T10:28:39.070Z,75
2017-09-28T10:29:39.083Z,75
2017-09-28T10:30:39.084Z,75
2017-09-28T10:31:39.356Z,75
2017-09-28T10:32:39.345Z,75
2017-09-28T10:33:39.319Z,75
2017-09-28T10:34:39.311Z,75
2017-09-28T10:35:38.988Z,80
2017-09-28T10:36:38.680Z,85
2017-09-28T10:37:38.629Z,90
2017-09-28T10:38:38.639Z,95
2017-09-28T10:39:38.600Z,100
2017-09-28T10:40:39.236Z,105
2017-09-28T10:41:39.224Z,110
2017-09-28T10:42:39.407Z,110
2017-09-28T10:43:38.561Z,115
2017-09-28T10:44:38.964Z,115
2017-09-28T10:45:38.841Z,115
2017-09-28T10:46:38.601Z,120
2017-09-28T10:47:38.787Z,125
2017-09-28T10:48:38.542Z,130
2017-09-28T10:49:39.173Z,130
2017-09-28T10:50:39.201Z,130
2017-09-28T10:51:38.719Z,130
2017-09-28T10:52:38.829Z,130
2017-09-28T10:53:39.020Z,130
2017-09-28T10:54:39.030Z,125
2017-09-28T10:55:38.997Z,120
2017-09-28T10:56:38.418Z,115
2017-09-28T10:57:38.963Z,110
2017-09-28T10:58:38.651Z,110
2017-09-28T10:59:38.951Z,110
2017-09-28T11:00:38.919Z,105
2017-09-28T11:01:38.583Z,100
2017-09-28T11:02:38.302Z,105
2017-09-28T11:03:38.612Z,100
2017-09-28T11:04:39.045Z,100
2017-09-28T11:05:38.834Z,100
2017-09-28T11:06:38.514Z,105
2017-09-28T11:07:38.272Z,110
2017-09-28T11:08:38.487Z,110
2017-09-28T11:09:38.470Z,115
2017-09-28T11:10:37.811Z,120
2017-09-28T11:11:38.441Z,125
2017-09-28T11:12:38.752Z,130
2017-09-28T11:13:38.790Z,130
2017-09-28T11:14:38.072Z,135
2017-09-28T11:15:38.673Z,135
2017-09-28T11:16:38.929Z,135
2017-09-28T11:17:38.670Z,130
2017-09-28T11:18:38.662Z,125
2017-09-28T11:19:38.667Z,120
2017-09-28T11:20:38.301Z,115
2017-09-28T11:21:38.301Z,115
2017-09-28T11:22:38.291Z,110
2017-09-28T11:23:38.363Z,110
2017-09-28T11:24:38.550Z,110
2017-09-28T11:25:38.581Z,110
2017-09-28T11:26:38.522Z,110
2017-09-28T11:27:38.205Z,110
2017-09-28T11:28:38.512Z,115
2017-09-28T11:29:38.467Z,115
2017-09-28T11:30:38.500Z,120
2017-09-28T11:31:38.130Z,130
2017-09-28T11:32:38.126Z,140
2017-09-28T11:33:38.444Z,145
2017-09-28T11:34:38.411Z,150
2017-09-28T11:35:38.079Z,155
2017-09-28T11:36:38.402Z,160
2017-09-28T11:37:38.369Z,165
2017-09-28T11:38:37.724Z,180
2017-09-28T11:39:38.371Z,190
2017-09-28T11:40:38.011Z,185
2017-09-28T11:41:37.972Z,185
2017-09-28T11:42:38.303Z,185
2017-09-28T11:43:37.981Z,180
2017-09-28T11:44:38.292Z,175
2017-09-28T11:45:37.944Z,175
2017-09-28T11:46:38.252Z,170
2017-09-28T11:47:37.646Z,165
2017-09-28T11:48:38.212Z,160
2017-09-28T11:49:38.222Z,155
2017-09-28T11:50:37.864Z,150
2017-09-28T11:51:37.982Z,140
2017-09-28T11:52:37.828Z,130
2017-09-28T11:53:38.115Z,125
2017-09-28T11:54:37.829Z,115
2017-09-28T11:55:37.792Z,110
2017-09-28T11:56:37.797Z,105
2017-09-28T11:57:37.861Z,100
2017-09-28T11:58:38.100Z,95
2017-09-28T11:59:37.729Z,95
2017-09-28T12:00:38.011Z,95
2017-09-28T12:01:37.463Z,95
2017-09-28T12:02:37.993Z,100
2017-09-28T12:03:37.988Z,100
2017-09-28T12:04:37.968Z,105
2017-09-28T12:05:37.977Z,100
2017-09-28T12:06:37.968Z,100
2017-09-28T12:07:37.648Z,95
2017-09-28T12:08:37.298Z,95
2017-09-28T12:09:37.902Z,90
2017-09-28T12:10:37.912Z,90
2017-09-28T12:11:37.252Z,85
2017-09-28T12:12:37.560Z,80
2017-09-28T12:13:37.237Z,80
2017-09-28T12:14:37.559Z,80
2017-09-28T12:15:37.528Z,80
2017-09-28T12:16:37.810Z,85
2017-09-28T12:17:37.831Z,85
2017-09-28T12:18:37.479Z,85
2017-09-28T12:19:37.453Z,85
2017-09-28T12:20:37.566Z,80
2017-09-28T12:21:37.109Z,80
2017-09-28T12:22:37.740Z,75
2017-09-28T12:23:37.882Z,70
2017-09-28T12:24:37.705Z,60
2017-09-28T12:25:37.380Z,55
2017-09-28T12:26:37.381Z,50
2017-09-28T12:27:37.359Z,50
2017-09-28T12:28:37.357Z,45
2017-09-28T12:29:37.632Z,45
2017-09-28T12:30:37.610Z,45
2017-09-28T12:31:37.612Z,45
2017-09-28T12:32:37.568Z,50
2017-09-28T12:33:37.257Z,50
2017-09-28T12:34:37.293Z,55
2017-09-28T12:35:37.297Z,55
2017-09-28T12:36:37.225Z,60
2017-09-28T12:37:36.876Z,60
2017-09-28T12:38:37.266Z,60
2017-09-28T12:39:37.483Z,65
2017-09-28T12:40:37.153Z,65
2017-09-28T12:41:37.580Z,70
2017-09-28T12:42:36.909Z,70
2017-09-28T12:43:37.141Z,70
2017-09-28T12:44:37.412Z,70
2017-09-28T12:45:37.478Z,65
2017-09-28T12:46:37.482Z,60
2017-09-28T12:47:37.409Z,55
2017-09-28T12:48:37.030Z,55
2017-09-28T12:49:37.088Z,50
2017-09-28T12:50:37.348Z,45
2017-09-28T12:51:37.010Z,45
2017-09-28T12:52:37.321Z,40
2017-09-28T12:53:36.750Z,40
2017-09-28T12:54:37.270Z,40
2017-09-28T12:55:36.982Z,40
2017-09-28T12:56:36.917Z,40
2017-09-28T12:57:37.225Z,35
2017-09-28T12:58:37.260Z,35
2017-09-28T12:59:37.203Z,35
2017-09-28T13:00:37.168Z,35
2017-09-28T13:01:36.530Z,35
2017-09-28T13:02:36.208Z,35
2017-09-28T13:03:37.147Z,35
2017-09-28T13:04:36.812Z,35
2017-09-28T13:05:36.788Z,35
2017-09-28T13:06:36.765Z,35
2017-09-28T13:07:37.103Z,30
2017-09-28T13:08:37.073Z,30
2017-09-28T13:09:36.410Z,30
2017-09-28T13:10:36.720Z,25
2017-09-28T13:11:36.112Z,25
2017-09-28T13:12:37.019Z,20
2017-09-28T13:13:36.429Z,20
2017-09-28T13:14:36.684Z,15
2017-09-28T13:15:36.953Z,15
2017-09-28T13:16:36.395Z,15
2017-09-28T13:17:37.308Z,15
2017-09-28T13:18:36.598Z,15
2017-09-28T13:19:36.898Z,15
2017-09-28T13:20:36.576Z,15
2017-09-28T13:21:36.903Z,20
2017-09-28T13:22:36.246Z,20
2017-09-28T13:23:36.510Z,20
2017-09-28T13:24:36.521Z,25
2017-09-28T13:25:36.840Z,35
2017-09-28T13:26:36.793Z,40
2017-09-28T13:27:35.836Z,40
2017-09-28T13:28:36.468Z,50
2017-09-28T13:29:36.747Z,55
2017-09-28T13:30:36.460Z,60
2017-09-28T13:31:36.724Z,65
2017-09-28T13:32:36.399Z,70
2017-09-28T13:33:36.701Z,75
2017-09-28T13:34:35.757Z,75
2017-09-28T13:35:36.352Z,80
2017-09-28T13:36:36.051Z,80
2017-09-28T13:37:36.652Z,75
2017-09-28T13:38:36.333Z,70
2017-09-28T13:39:36.278Z,70
2017-09-28T13:40:36.568Z,70
2017-09-28T13:41:36.258Z,75
2017-09-28T13:42:36.365Z,75
2017-09-28T13:43:36.532Z,80
2017-09-28T13:44:35.583Z,75
2017-09-28T13:45:36.235Z,75
2017-09-28T13:46:36.189Z,75
2017-09-28T13:47:36.487Z,75
2017-09-28T13:48:36.170Z,75
2017-09-28T13:49:35.823Z,75
2017-09-28T13:50:36.223Z,75
2017-09-28T13:51:36.125Z,75
2017-09-28T13:52:36.104Z,75
2017-09-28T13:53:36.443Z,80
2017-09-28T13:54:36.140Z,85
2017-09-28T13:55:36.086Z,85
2017-09-28T13:56:35.729Z,90
2017-09-28T13:57:36.121Z,90
2017-09-28T13:58:36.118Z,90
2017-09-28T13:59:36.056Z,90
2017-09-28T14:00:35.999Z,85
2017-09-28T14:01:35.653Z,80
2017-09-28T14:02:36.268Z,75
2017-09-28T14:03:36.271Z,75
2017-09-28T14:04:36.220Z,75
2017-09-28T14:05:35.924Z,70
2017-09-28T14:06:35.883Z,70
2017-09-28T14:07:35.943Z,70
2017-09-28T14:08:36.206Z,65
2017-09-28T14:09:36.199Z,65
2017-09-28T14:10:35.836Z,60
2017-09-28T14:11:36.181Z,55
2017-09-28T14:12:35.885Z,50
2017-09-28T14:13:36.252Z,45
2017-09-28T14:14:36.095Z,45
2017-09-28T14:15:36.216Z,45
2017-09-28T14:16:36.076Z,45
2017-09-28T14:17:36.061Z,45
2017-09-28T14:18:36.184Z,45
2017-09-28T14:19:36.036Z,40
2017-09-28T14:20:36.053Z,40
2017-09-28T14:21:36.028Z,40
2017-09-28T14:22:36.068Z,45
2017-09-28T14:23:36.012Z,45
2017-09-28T14:24:35.991Z,50
2017-09-28T14:25:35.953Z,50
2017-09-28T14:26:35.323Z,50
2017-09-28T14:27:35.926Z,50
2017-09-28T14:28:36.020Z,50
2017-09-28T14:29:35.590Z,50
2017-09-28T14:30:35.633Z,55
2017-09-28T14:31:35.528Z,55
2017-09-28T14:32:35.536Z,55
2017-09-28T14:33:35.550Z,50
2017-09-28T14:34:35.519Z,40
2017-09-28T14:35:35.486Z,35